sensor_id;sensor_type;location;lat;lon;timestamp;P1;durP1;ratioP1;P2;durP2;ratioP2
19026;SDS011;9646;52.034;5.554;2024-01-30T00:00:51;9.88;;;7.55;;
19026;SDS011;9646;52.034;5.554;2024-01-30T00:03:18;10.80;;;7.90;;
19026;SDS011;9646;52.034;5.554;2024-01-30T00:05:45;12.68;;;7.40;;
19026;SDS011;9646;52.034;5.554;2024-01-30T00:08:13;11.05;;;8.50;;
19026;SDS011;9646;52.034;5.554;2024-01-30T00:10:40;9.45;;;7.55;;
19026;SDS011;9646;52.034;5.554;2024-01-30T00:13:08;10.57;;;7.35;;
19026;SDS011;9646;52.034;5.554;2024-01-30T00:15:36;9.05;;;7.13;;
19026;SDS011;9646;52.034;5.554;2024-01-30T00:18:03;11.23;;;7.82;;
19026;SDS011;9646;52.034;5.554;2024-01-30T00:20:30;11.82;;;8.75;;
19026;SDS011;9646;52.034;5.554;2024-01-30T00:22:57;8.40;;;6.20;;
19026;SDS011;9646;52.034;5.554;2024-01-30T00:25:25;11.55;;;8.00;;
19026;SDS011;9646;52.034;5.554;2024-01-30T00:27:52;13.02;;;8.05;;
19026;SDS011;9646;52.034;5.554;2024-01-30T00:30:21;13.95;;;8.38;;
19026;SDS011;9646;52.034;5.554;2024-01-30T00:32:48;11.05;;;7.60;;
19026;SDS011;9646;52.034;5.554;2024-01-30T00:35:15;9.73;;;7.45;;
19026;SDS011;9646;52.034;5.554;2024-01-30T00:37:43;9.98;;;7.53;;
19026;SDS011;9646;52.034;5.554;2024-01-30T00:40:10;9.93;;;7.63;;
19026;SDS011;9646;52.034;5.554;2024-01-30T00:42:40;11.15;;;7.65;;
19026;SDS011;9646;52.034;5.554;2024-01-30T00:45:11;10.98;;;7.70;;
19026;SDS011;9646;52.034;5.554;2024-01-30T00:47:40;11.60;;;7.25;;
19026;SDS011;9646;52.034;5.554;2024-01-30T00:50:07;9.93;;;7.88;;
19026;SDS011;9646;52.034;5.554;2024-01-30T00:52:34;7.32;;;5.63;;
19026;SDS011;9646;52.034;5.554;2024-01-30T00:55:02;10.52;;;6.80;;
19026;SDS011;9646;52.034;5.554;2024-01-30T00:57:29;9.43;;;6.60;;
19026;SDS011;9646;52.034;5.554;2024-01-30T00:59:56;9.90;;;6.95;;
19026;SDS011;9646;52.034;5.554;2024-01-30T01:02:24;9.85;;;6.88;;
19026;SDS011;9646;52.034;5.554;2024-01-30T01:04:52;10.70;;;6.80;;
19026;SDS011;9646;52.034;5.554;2024-01-30T01:07:19;10.48;;;6.28;;
19026;SDS011;9646;52.034;5.554;2024-01-30T01:09:46;8.38;;;6.63;;
19026;SDS011;9646;52.034;5.554;2024-01-30T01:12:14;8.85;;;6.05;;
19026;SDS011;9646;52.034;5.554;2024-01-30T01:14:41;8.88;;;5.93;;
19026;SDS011;9646;52.034;5.554;2024-01-30T01:17:08;8.43;;;6.50;;
19026;SDS011;9646;52.034;5.554;2024-01-30T01:19:35;9.77;;;6.95;;
19026;SDS011;9646;52.034;5.554;2024-01-30T01:22:04;8.68;;;6.80;;
19026;SDS011;9646;52.034;5.554;2024-01-30T01:24:31;8.73;;;5.85;;
19026;SDS011;9646;52.034;5.554;2024-01-30T01:26:59;10.65;;;6.95;;
19026;SDS011;9646;52.034;5.554;2024-01-30T01:29:26;9.02;;;6.43;;
19026;SDS011;9646;52.034;5.554;2024-01-30T01:31:54;9.02;;;7.07;;
19026;SDS011;9646;52.034;5.554;2024-01-30T01:34:21;9.43;;;6.45;;
19026;SDS011;9646;52.034;5.554;2024-01-30T01:36:49;9.52;;;5.93;;
19026;SDS011;9646;52.034;5.554;2024-01-30T01:39:17;9.57;;;6.35;;
19026;SDS011;9646;52.034;5.554;2024-01-30T01:41:44;8.77;;;6.45;;
19026;SDS011;9646;52.034;5.554;2024-01-30T01:44:11;7.30;;;5.53;;
19026;SDS011;9646;52.034;5.554;2024-01-30T01:46:39;8.25;;;5.82;;
19026;SDS011;9646;52.034;5.554;2024-01-30T01:49:06;8.98;;;6.70;;
19026;SDS011;9646;52.034;5.554;2024-01-30T01:51:34;8.70;;;6.13;;
19026;SDS011;9646;52.034;5.554;2024-01-30T01:54:03;7.82;;;6.25;;
19026;SDS011;9646;52.034;5.554;2024-01-30T01:56:32;8.85;;;5.80;;
19026;SDS011;9646;52.034;5.554;2024-01-30T01:59:00;8.32;;;6.80;;
19026;SDS011;9646;52.034;5.554;2024-01-30T02:01:31;9.50;;;6.13;;
19026;SDS011;9646;52.034;5.554;2024-01-30T02:03:59;8.65;;;6.57;;
19026;SDS011;9646;52.034;5.554;2024-01-30T02:06:26;8.50;;;6.43;;
19026;SDS011;9646;52.034;5.554;2024-01-30T02:08:53;9.20;;;5.53;;
19026;SDS011;9646;52.034;5.554;2024-01-30T02:11:22;7.60;;;6.15;;
19026;SDS011;9646;52.034;5.554;2024-01-30T02:13:51;8.10;;;6.10;;
19026;SDS011;9646;52.034;5.554;2024-01-30T02:16:18;8.27;;;6.90;;
19026;SDS011;9646;52.034;5.554;2024-01-30T02:18:45;10.35;;;6.60;;
19026;SDS011;9646;52.034;5.554;2024-01-30T02:21:14;9.55;;;6.93;;
19026;SDS011;9646;52.034;5.554;2024-01-30T02:23:43;9.95;;;6.78;;
19026;SDS011;9646;52.034;5.554;2024-01-30T02:26:10;9.45;;;6.53;;
19026;SDS011;9646;52.034;5.554;2024-01-30T02:28:38;9.25;;;7.07;;
19026;SDS011;9646;52.034;5.554;2024-01-30T02:31:05;8.35;;;6.32;;
19026;SDS011;9646;52.034;5.554;2024-01-30T02:33:32;8.57;;;6.05;;
19026;SDS011;9646;52.034;5.554;2024-01-30T02:35:59;9.40;;;6.60;;
19026;SDS011;9646;52.034;5.554;2024-01-30T02:38:28;7.45;;;5.90;;
19026;SDS011;9646;52.034;5.554;2024-01-30T02:40:55;8.55;;;6.85;;
19026;SDS011;9646;52.034;5.554;2024-01-30T02:43:23;9.23;;;6.72;;
19026;SDS011;9646;52.034;5.554;2024-01-30T02:45:50;9.05;;;6.50;;
19026;SDS011;9646;52.034;5.554;2024-01-30T02:48:18;8.35;;;6.40;;
19026;SDS011;9646;52.034;5.554;2024-01-30T02:50:45;8.88;;;6.38;;
19026;SDS011;9646;52.034;5.554;2024-01-30T02:53:12;7.35;;;6.30;;
19026;SDS011;9646;52.034;5.554;2024-01-30T02:55:41;9.25;;;6.55;;
19026;SDS011;9646;52.034;5.554;2024-01-30T02:58:08;8.80;;;6.35;;
19026;SDS011;9646;52.034;5.554;2024-01-30T03:00:37;8.05;;;5.72;;
19026;SDS011;9646;52.034;5.554;2024-01-30T03:03:05;8.35;;;5.75;;
19026;SDS011;9646;52.034;5.554;2024-01-30T03:05:32;7.03;;;5.53;;
19026;SDS011;9646;52.034;5.554;2024-01-30T03:08:00;7.18;;;5.28;;
19026;SDS011;9646;52.034;5.554;2024-01-30T03:10:27;8.57;;;6.35;;
19026;SDS011;9646;52.034;5.554;2024-01-30T03:12:55;7.85;;;5.80;;
19026;SDS011;9646;52.034;5.554;2024-01-30T03:15:23;7.20;;;5.97;;
19026;SDS011;9646;52.034;5.554;2024-01-30T03:17:51;8.82;;;6.25;;
19026;SDS011;9646;52.034;5.554;2024-01-30T03:20:20;9.52;;;5.90;;
19026;SDS011;9646;52.034;5.554;2024-01-30T03:22:47;6.50;;;5.47;;
19026;SDS011;9646;52.034;5.554;2024-01-30T03:25:14;7.43;;;5.45;;
19026;SDS011;9646;52.034;5.554;2024-01-30T03:27:41;7.80;;;5.80;;
19026;SDS011;9646;52.034;5.554;2024-01-30T03:30:10;6.30;;;5.05;;
19026;SDS011;9646;52.034;5.554;2024-01-30T03:32:37;9.05;;;5.68;;
19026;SDS011;9646;52.034;5.554;2024-01-30T03:35:04;9.32;;;6.00;;
19026;SDS011;9646;52.034;5.554;2024-01-30T03:37:32;6.65;;;5.00;;
19026;SDS011;9646;52.034;5.554;2024-01-30T03:39:59;8.20;;;5.97;;
19026;SDS011;9646;52.034;5.554;2024-01-30T03:42:26;7.95;;;5.72;;
19026;SDS011;9646;52.034;5.554;2024-01-30T03:44:53;7.90;;;6.28;;
19026;SDS011;9646;52.034;5.554;2024-01-30T03:47:22;7.13;;;5.65;;
19026;SDS011;9646;52.034;5.554;2024-01-30T03:49:49;8.05;;;5.30;;
19026;SDS011;9646;52.034;5.554;2024-01-30T03:52:16;9.75;;;6.07;;
19026;SDS011;9646;52.034;5.554;2024-01-30T03:54:44;7.05;;;5.82;;
19026;SDS011;9646;52.034;5.554;2024-01-30T03:57:11;6.45;;;5.80;;
19026;SDS011;9646;52.034;5.554;2024-01-30T03:59:38;7.75;;;5.53;;
19026;SDS011;9646;52.034;5.554;2024-01-30T04:02:09;8.55;;;5.47;;
19026;SDS011;9646;52.034;5.554;2024-01-30T04:04:38;8.32;;;5.90;;
19026;SDS011;9646;52.034;5.554;2024-01-30T04:07:05;6.93;;;5.53;;
19026;SDS011;9646;52.034;5.554;2024-01-30T04:09:32;10.00;;;6.15;;
19026;SDS011;9646;52.034;5.554;2024-01-30T04:11:59;6.43;;;5.50;;
19026;SDS011;9646;52.034;5.554;2024-01-30T04:14:28;8.55;;;6.38;;
19026;SDS011;9646;52.034;5.554;2024-01-30T04:16:55;7.32;;;5.57;;
19026;SDS011;9646;52.034;5.554;2024-01-30T04:19:22;8.80;;;6.18;;
19026;SDS011;9646;52.034;5.554;2024-01-30T04:21:50;7.88;;;6.65;;
19026;SDS011;9646;52.034;5.554;2024-01-30T04:24:18;8.40;;;5.70;;
19026;SDS011;9646;52.034;5.554;2024-01-30T04:26:45;8.73;;;6.13;;
19026;SDS011;9646;52.034;5.554;2024-01-30T04:29:12;6.80;;;4.78;;
19026;SDS011;9646;52.034;5.554;2024-01-30T04:31:39;9.35;;;5.88;;
19026;SDS011;9646;52.034;5.554;2024-01-30T04:34:06;6.88;;;4.97;;
19026;SDS011;9646;52.034;5.554;2024-01-30T04:36:33;6.32;;;4.93;;
19026;SDS011;9646;52.034;5.554;2024-01-30T04:39:02;8.63;;;5.25;;
19026;SDS011;9646;52.034;5.554;2024-01-30T04:41:29;7.63;;;5.60;;
19026;SDS011;9646;52.034;5.554;2024-01-30T04:43:57;8.27;;;5.78;;
19026;SDS011;9646;52.034;5.554;2024-01-30T04:46:24;5.93;;;5.28;;
19026;SDS011;9646;52.034;5.554;2024-01-30T04:48:51;9.98;;;6.13;;
19026;SDS011;9646;52.034;5.554;2024-01-30T04:51:18;7.93;;;6.10;;
19026;SDS011;9646;52.034;5.554;2024-01-30T04:53:46;7.00;;;5.45;;
19026;SDS011;9646;52.034;5.554;2024-01-30T04:56:14;7.60;;;6.38;;
19026;SDS011;9646;52.034;5.554;2024-01-30T04:58:41;7.53;;;5.53;;
19026;SDS011;9646;52.034;5.554;2024-01-30T05:01:08;7.65;;;5.90;;
19026;SDS011;9646;52.034;5.554;2024-01-30T05:03:35;11.18;;;6.03;;
19026;SDS011;9646;52.034;5.554;2024-01-30T05:06:04;7.43;;;5.88;;
19026;SDS011;9646;52.034;5.554;2024-01-30T05:08:31;8.95;;;5.90;;
19026;SDS011;9646;52.034;5.554;2024-01-30T05:10:59;6.97;;;5.93;;
19026;SDS011;9646;52.034;5.554;2024-01-30T05:13:30;7.75;;;6.13;;
19026;SDS011;9646;52.034;5.554;2024-01-30T05:15:57;10.98;;;6.95;;
19026;SDS011;9646;52.034;5.554;2024-01-30T05:18:24;10.90;;;8.35;;
19026;SDS011;9646;52.034;5.554;2024-01-30T05:20:51;13.20;;;9.55;;
19026;SDS011;9646;52.034;5.554;2024-01-30T05:23:18;10.85;;;7.68;;
19026;SDS011;9646;52.034;5.554;2024-01-30T05:25:46;12.32;;;7.45;;
19026;SDS011;9646;52.034;5.554;2024-01-30T05:28:13;9.43;;;7.22;;
19026;SDS011;9646;52.034;5.554;2024-01-30T05:30:41;11.63;;;7.28;;
19026;SDS011;9646;52.034;5.554;2024-01-30T05:33:08;11.10;;;6.88;;
19026;SDS011;9646;52.034;5.554;2024-01-30T05:35:37;9.23;;;6.10;;
19026;SDS011;9646;52.034;5.554;2024-01-30T05:38:05;7.35;;;5.50;;
19026;SDS011;9646;52.034;5.554;2024-01-30T05:40:32;8.63;;;6.15;;
19026;SDS011;9646;52.034;5.554;2024-01-30T05:42:59;7.43;;;5.97;;
19026;SDS011;9646;52.034;5.554;2024-01-30T05:45:27;8.80;;;5.85;;
19026;SDS011;9646;52.034;5.554;2024-01-30T05:47:56;7.07;;;5.95;;
19026;SDS011;9646;52.034;5.554;2024-01-30T05:50:23;8.73;;;5.75;;
19026;SDS011;9646;52.034;5.554;2024-01-30T05:52:51;8.15;;;5.43;;
19026;SDS011;9646;52.034;5.554;2024-01-30T05:55:18;7.88;;;5.13;;
19026;SDS011;9646;52.034;5.554;2024-01-30T05:57:45;7.72;;;6.22;;
19026;SDS011;9646;52.034;5.554;2024-01-30T06:00:13;10.32;;;5.95;;
19026;SDS011;9646;52.034;5.554;2024-01-30T06:02:40;7.32;;;5.60;;
19026;SDS011;9646;52.034;5.554;2024-01-30T06:05:09;7.65;;;5.80;;
19026;SDS011;9646;52.034;5.554;2024-01-30T06:07:36;7.07;;;5.35;;
19026;SDS011;9646;52.034;5.554;2024-01-30T06:10:04;8.38;;;5.28;;
19026;SDS011;9646;52.034;5.554;2024-01-30T06:12:32;7.10;;;5.53;;
19026;SDS011;9646;52.034;5.554;2024-01-30T06:14:59;6.78;;;5.28;;
19026;SDS011;9646;52.034;5.554;2024-01-30T06:17:26;7.60;;;5.10;;
19026;SDS011;9646;52.034;5.554;2024-01-30T06:19:53;6.18;;;5.28;;
19026;SDS011;9646;52.034;5.554;2024-01-30T06:22:22;7.35;;;4.93;;
19026;SDS011;9646;52.034;5.554;2024-01-30T06:24:49;7.07;;;5.55;;
19026;SDS011;9646;52.034;5.554;2024-01-30T06:27:16;7.80;;;5.53;;
19026;SDS011;9646;52.034;5.554;2024-01-30T06:29:44;8.13;;;5.88;;
19026;SDS011;9646;52.034;5.554;2024-01-30T06:32:11;7.47;;;5.85;;
19026;SDS011;9646;52.034;5.554;2024-01-30T06:34:38;7.28;;;5.22;;
19026;SDS011;9646;52.034;5.554;2024-01-30T06:37:05;5.22;;;4.65;;
19026;SDS011;9646;52.034;5.554;2024-01-30T06:39:34;4.95;;;3.95;;
19026;SDS011;9646;52.034;5.554;2024-01-30T06:42:01;7.15;;;5.10;;
19026;SDS011;9646;52.034;5.554;2024-01-30T06:44:28;6.85;;;4.45;;
19026;SDS011;9646;52.034;5.554;2024-01-30T06:46:55;7.88;;;4.65;;
19026;SDS011;9646;52.034;5.554;2024-01-30T06:49:22;9.05;;;5.97;;
19026;SDS011;9646;52.034;5.554;2024-01-30T06:51:49;8.38;;;5.20;;
19026;SDS011;9646;52.034;5.554;2024-01-30T06:54:17;8.82;;;4.57;;
19026;SDS011;9646;52.034;5.554;2024-01-30T06:56:45;5.95;;;4.00;;
19026;SDS011;9646;52.034;5.554;2024-01-30T06:59:12;7.07;;;4.68;;
19026;SDS011;9646;52.034;5.554;2024-01-30T07:01:39;6.63;;;4.50;;
19026;SDS011;9646;52.034;5.554;2024-01-30T07:04:06;8.32;;;5.45;;
19026;SDS011;9646;52.034;5.554;2024-01-30T07:06:34;6.22;;;4.70;;
19026;SDS011;9646;52.034;5.554;2024-01-30T07:09:01;8.98;;;5.35;;
19026;SDS011;9646;52.034;5.554;2024-01-30T07:11:29;7.65;;;5.28;;
19026;SDS011;9646;52.034;5.554;2024-01-30T07:13:58;7.45;;;5.47;;
19026;SDS011;9646;52.034;5.554;2024-01-30T07:16:28;6.40;;;5.13;;
19026;SDS011;9646;52.034;5.554;2024-01-30T07:18:56;7.63;;;5.30;;
19026;SDS011;9646;52.034;5.554;2024-01-30T07:21:23;7.63;;;4.63;;
19026;SDS011;9646;52.034;5.554;2024-01-30T07:23:53;8.70;;;5.07;;
19026;SDS011;9646;52.034;5.554;2024-01-30T07:26:20;7.38;;;5.38;;
19026;SDS011;9646;52.034;5.554;2024-01-30T07:28:47;7.22;;;4.85;;
19026;SDS011;9646;52.034;5.554;2024-01-30T07:31:16;9.90;;;4.85;;
19026;SDS011;9646;52.034;5.554;2024-01-30T07:33:46;7.63;;;4.95;;
19026;SDS011;9646;52.034;5.554;2024-01-30T07:36:13;8.05;;;6.38;;
19026;SDS011;9646;52.034;5.554;2024-01-30T07:38:40;13.38;;;6.05;;
19026;SDS011;9646;52.034;5.554;2024-01-30T07:41:07;8.35;;;6.07;;
19026;SDS011;9646;52.034;5.554;2024-01-30T07:43:34;10.02;;;6.03;;
19026;SDS011;9646;52.034;5.554;2024-01-30T07:46:03;7.53;;;5.80;;
19026;SDS011;9646;52.034;5.554;2024-01-30T07:48:32;10.02;;;6.40;;
19026;SDS011;9646;52.034;5.554;2024-01-30T07:51:00;9.40;;;6.15;;
19026;SDS011;9646;52.034;5.554;2024-01-30T07:53:29;10.60;;;5.97;;
19026;SDS011;9646;52.034;5.554;2024-01-30T07:55:56;7.18;;;5.28;;
19026;SDS011;9646;52.034;5.554;2024-01-30T07:58:23;9.98;;;6.32;;
19026;SDS011;9646;52.034;5.554;2024-01-30T08:00:52;7.35;;;5.60;;
19026;SDS011;9646;52.034;5.554;2024-01-30T08:03:19;10.82;;;6.85;;
19026;SDS011;9646;52.034;5.554;2024-01-30T08:05:48;11.88;;;6.05;;
19026;SDS011;9646;52.034;5.554;2024-01-30T08:08:15;8.38;;;6.05;;
19026;SDS011;9646;52.034;5.554;2024-01-30T08:10:42;8.60;;;5.75;;
19026;SDS011;9646;52.034;5.554;2024-01-30T08:13:09;9.40;;;6.30;;
19026;SDS011;9646;52.034;5.554;2024-01-30T08:15:36;7.75;;;5.43;;
19026;SDS011;9646;52.034;5.554;2024-01-30T08:18:03;8.18;;;5.45;;
19026;SDS011;9646;52.034;5.554;2024-01-30T08:20:32;9.48;;;5.75;;
19026;SDS011;9646;52.034;5.554;2024-01-30T08:23:00;8.73;;;5.88;;
19026;SDS011;9646;52.034;5.554;2024-01-30T08:25:27;8.23;;;5.40;;
19026;SDS011;9646;52.034;5.554;2024-01-30T08:27:55;7.60;;;5.78;;
19026;SDS011;9646;52.034;5.554;2024-01-30T08:30:22;10.40;;;6.28;;
19026;SDS011;9646;52.034;5.554;2024-01-30T08:32:49;8.30;;;6.30;;
19026;SDS011;9646;52.034;5.554;2024-01-30T08:35:16;8.02;;;6.15;;
19026;SDS011;9646;52.034;5.554;2024-01-30T08:37:44;9.02;;;5.38;;
19026;SDS011;9646;52.034;5.554;2024-01-30T08:40:12;7.63;;;5.95;;
19026;SDS011;9646;52.034;5.554;2024-01-30T08:42:39;9.90;;;5.97;;
19026;SDS011;9646;52.034;5.554;2024-01-30T08:45:08;8.60;;;5.80;;
19026;SDS011;9646;52.034;5.554;2024-01-30T08:47:35;8.90;;;5.75;;
19026;SDS011;9646;52.034;5.554;2024-01-30T08:50:02;9.82;;;5.85;;
19026;SDS011;9646;52.034;5.554;2024-01-30T08:52:30;8.43;;;5.72;;
19026;SDS011;9646;52.034;5.554;2024-01-30T08:54:58;10.52;;;6.40;;
19026;SDS011;9646;52.034;5.554;2024-01-30T08:57:26;9.70;;;6.25;;
19026;SDS011;9646;52.034;5.554;2024-01-30T08:59:54;10.05;;;5.57;;
19026;SDS011;9646;52.034;5.554;2024-01-30T09:02:21;8.93;;;6.45;;
19026;SDS011;9646;52.034;5.554;2024-01-30T09:04:48;11.23;;;5.78;;
19026;SDS011;9646;52.034;5.554;2024-01-30T09:07:15;7.32;;;5.50;;
19026;SDS011;9646;52.034;5.554;2024-01-30T09:09:43;12.50;;;6.65;;
19026;SDS011;9646;52.034;5.554;2024-01-30T09:12:10;9.57;;;6.75;;
19026;SDS011;9646;52.034;5.554;2024-01-30T09:14:39;10.52;;;6.57;;
19026;SDS011;9646;52.034;5.554;2024-01-30T09:17:06;9.77;;;6.50;;
19026;SDS011;9646;52.034;5.554;2024-01-30T09:19:33;10.00;;;6.20;;
19026;SDS011;9646;52.034;5.554;2024-01-30T09:22:00;12.13;;;5.85;;
19026;SDS011;9646;52.034;5.554;2024-01-30T09:24:28;11.85;;;7.43;;
19026;SDS011;9646;52.034;5.554;2024-01-30T09:26:55;8.73;;;5.97;;
19026;SDS011;9646;52.034;5.554;2024-01-30T09:29:22;11.27;;;6.88;;
19026;SDS011;9646;52.034;5.554;2024-01-30T09:31:50;11.10;;;7.05;;
19026;SDS011;9646;52.034;5.554;2024-01-30T09:34:17;8.13;;;5.90;;
19026;SDS011;9646;52.034;5.554;2024-01-30T09:36:45;12.82;;;7.28;;
19026;SDS011;9646;52.034;5.554;2024-01-30T09:39:12;11.52;;;6.50;;
19026;SDS011;9646;52.034;5.554;2024-01-30T09:41:44;12.95;;;7.35;;
19026;SDS011;9646;52.034;5.554;2024-01-30T09:44:12;10.57;;;7.10;;
19026;SDS011;9646;52.034;5.554;2024-01-30T09:46:40;13.82;;;7.72;;
19026;SDS011;9646;52.034;5.554;2024-01-30T09:49:09;11.70;;;7.47;;
19026;SDS011;9646;52.034;5.554;2024-01-30T09:51:37;10.30;;;6.85;;
19026;SDS011;9646;52.034;5.554;2024-01-30T09:54:05;10.20;;;7.53;;
19026;SDS011;9646;52.034;5.554;2024-01-30T09:56:34;14.88;;;7.75;;
19026;SDS011;9646;52.034;5.554;2024-01-30T09:59:01;12.30;;;7.10;;
19026;SDS011;9646;52.034;5.554;2024-01-30T10:01:29;12.40;;;7.00;;
19026;SDS011;9646;52.034;5.554;2024-01-30T10:03:56;14.25;;;7.57;;
19026;SDS011;9646;52.034;5.554;2024-01-30T10:06:25;10.05;;;6.90;;
19026;SDS011;9646;52.034;5.554;2024-01-30T10:08:54;11.57;;;7.45;;
19026;SDS011;9646;52.034;5.554;2024-01-30T10:11:21;13.63;;;8.07;;
19026;SDS011;9646;52.034;5.554;2024-01-30T10:13:48;18.38;;;8.55;;
19026;SDS011;9646;52.034;5.554;2024-01-30T10:16:16;15.45;;;8.45;;
19026;SDS011;9646;52.034;5.554;2024-01-30T10:18:43;14.20;;;6.72;;
19026;SDS011;9646;52.034;5.554;2024-01-30T10:21:10;12.20;;;6.50;;
19026;SDS011;9646;52.034;5.554;2024-01-30T10:23:38;16.52;;;7.07;;
19026;SDS011;9646;52.034;5.554;2024-01-30T10:26:06;10.80;;;6.60;;
19026;SDS011;9646;52.034;5.554;2024-01-30T10:28:34;12.57;;;6.82;;
19026;SDS011;9646;52.034;5.554;2024-01-30T10:31:01;11.80;;;6.95;;
19026;SDS011;9646;52.034;5.554;2024-01-30T10:33:29;11.40;;;6.40;;
19026;SDS011;9646;52.034;5.554;2024-01-30T10:35:57;10.38;;;6.32;;
19026;SDS011;9646;52.034;5.554;2024-01-30T10:38:27;10.63;;;6.32;;
19026;SDS011;9646;52.034;5.554;2024-01-30T10:40:57;11.20;;;6.20;;
19026;SDS011;9646;52.034;5.554;2024-01-30T10:43:24;12.00;;;6.72;;
19026;SDS011;9646;52.034;5.554;2024-01-30T10:45:55;10.95;;;6.45;;
19026;SDS011;9646;52.034;5.554;2024-01-30T10:48:25;14.57;;;7.10;;
19026;SDS011;9646;52.034;5.554;2024-01-30T10:50:54;11.80;;;6.32;;
19026;SDS011;9646;52.034;5.554;2024-01-30T10:53:22;9.60;;;6.30;;
19026;SDS011;9646;52.034;5.554;2024-01-30T10:55:56;10.13;;;6.07;;
19026;SDS011;9646;52.034;5.554;2024-01-30T10:58:25;10.45;;;5.85;;
19026;SDS011;9646;52.034;5.554;2024-01-30T11:00:52;13.85;;;6.85;;
19026;SDS011;9646;52.034;5.554;2024-01-30T11:03:19;13.18;;;5.82;;
19026;SDS011;9646;52.034;5.554;2024-01-30T11:05:48;13.23;;;6.68;;
19026;SDS011;9646;52.034;5.554;2024-01-30T11:08:22;11.13;;;6.30;;
19026;SDS011;9646;52.034;5.554;2024-01-30T11:10:49;13.02;;;6.88;;
19026;SDS011;9646;52.034;5.554;2024-01-30T11:13:18;17.75;;;7.05;;
19026;SDS011;9646;52.034;5.554;2024-01-30T11:15:47;11.10;;;5.60;;
19026;SDS011;9646;52.034;5.554;2024-01-30T11:18:22;9.60;;;4.68;;
19026;SDS011;9646;52.034;5.554;2024-01-30T11:20:50;8.93;;;5.18;;
19026;SDS011;9646;52.034;5.554;2024-01-30T11:23:17;8.05;;;4.57;;
19026;SDS011;9646;52.034;5.554;2024-01-30T11:25:44;9.07;;;4.47;;
19026;SDS011;9646;52.034;5.554;2024-01-30T11:28:15;8.13;;;4.85;;
19026;SDS011;9646;52.034;5.554;2024-01-30T11:30:44;6.63;;;3.67;;
19026;SDS011;9646;52.034;5.554;2024-01-30T11:33:12;5.22;;;4.13;;
19026;SDS011;9646;52.034;5.554;2024-01-30T11:35:40;6.25;;;3.83;;
19026;SDS011;9646;52.034;5.554;2024-01-30T11:38:08;8.20;;;4.13;;
19026;SDS011;9646;52.034;5.554;2024-01-30T11:40:36;9.48;;;4.13;;
19026;SDS011;9646;52.034;5.554;2024-01-30T11:43:04;9.45;;;4.05;;
19026;SDS011;9646;52.034;5.554;2024-01-30T11:45:32;7.65;;;3.47;;
19026;SDS011;9646;52.034;5.554;2024-01-30T11:48:01;4.80;;;2.63;;
19026;SDS011;9646;52.034;5.554;2024-01-30T11:50:29;5.97;;;3.10;;
19026;SDS011;9646;52.034;5.554;2024-01-30T11:52:56;9.50;;;3.10;;
19026;SDS011;9646;52.034;5.554;2024-01-30T11:55:23;6.35;;;2.58;;
19026;SDS011;9646;52.034;5.554;2024-01-30T11:57:51;7.68;;;3.17;;
19026;SDS011;9646;52.034;5.554;2024-01-30T12:00:18;5.28;;;3.17;;
19026;SDS011;9646;52.034;5.554;2024-01-30T12:02:48;4.63;;;2.80;;
19026;SDS011;9646;52.034;5.554;2024-01-30T12:05:18;8.10;;;3.10;;
19026;SDS011;9646;52.034;5.554;2024-01-30T12:07:46;8.07;;;3.03;;
19026;SDS011;9646;52.034;5.554;2024-01-30T12:10:13;5.90;;;2.70;;
19026;SDS011;9646;52.034;5.554;2024-01-30T12:12:41;3.08;;;2.38;;
19026;SDS011;9646;52.034;5.554;2024-01-30T12:15:08;4.80;;;2.38;;
19026;SDS011;9646;52.034;5.554;2024-01-30T12:17:35;7.60;;;2.03;;
19026;SDS011;9646;52.034;5.554;2024-01-30T12:20:03;5.18;;;1.60;;
19026;SDS011;9646;52.034;5.554;2024-01-30T12:22:33;6.22;;;1.67;;
19026;SDS011;9646;52.034;5.554;2024-01-30T12:25:00;3.40;;;1.73;;
19026;SDS011;9646;52.034;5.554;2024-01-30T12:27:27;3.33;;;1.73;;
19026;SDS011;9646;52.034;5.554;2024-01-30T12:29:57;3.97;;;1.75;;
19026;SDS011;9646;52.034;5.554;2024-01-30T12:32:26;6.15;;;1.70;;
19026;SDS011;9646;52.034;5.554;2024-01-30T12:34:56;5.10;;;2.10;;
19026;SDS011;9646;52.034;5.554;2024-01-30T12:37:24;6.28;;;2.10;;
19026;SDS011;9646;52.034;5.554;2024-01-30T12:39:52;4.55;;;1.90;;
19026;SDS011;9646;52.034;5.554;2024-01-30T12:42:20;2.97;;;1.80;;
19026;SDS011;9646;52.034;5.554;2024-01-30T12:44:47;4.15;;;1.88;;
19026;SDS011;9646;52.034;5.554;2024-01-30T12:47:14;3.85;;;2.00;;
19026;SDS011;9646;52.034;5.554;2024-01-30T12:49:42;4.75;;;2.10;;
19026;SDS011;9646;52.034;5.554;2024-01-30T12:52:10;6.95;;;2.10;;
19026;SDS011;9646;52.034;5.554;2024-01-30T12:54:37;5.25;;;2.50;;
19026;SDS011;9646;52.034;5.554;2024-01-30T12:57:07;6.78;;;2.47;;
19026;SDS011;9646;52.034;5.554;2024-01-30T12:59:34;8.68;;;2.45;;
19026;SDS011;9646;52.034;5.554;2024-01-30T13:02:01;7.43;;;2.05;;
19026;SDS011;9646;52.034;5.554;2024-01-30T13:04:29;4.72;;;2.33;;
19026;SDS011;9646;52.034;5.554;2024-01-30T13:06:56;6.68;;;2.40;;
19026;SDS011;9646;52.034;5.554;2024-01-30T13:09:23;8.93;;;2.67;;
19026;SDS011;9646;52.034;5.554;2024-01-30T13:11:50;6.70;;;2.08;;
19026;SDS011;9646;52.034;5.554;2024-01-30T13:14:19;6.53;;;2.25;;
19026;SDS011;9646;52.034;5.554;2024-01-30T13:16:46;7.35;;;2.50;;
19026;SDS011;9646;52.034;5.554;2024-01-30T13:19:13;6.95;;;2.33;;
19026;SDS011;9646;52.034;5.554;2024-01-30T13:21:41;10.55;;;2.45;;
19026;SDS011;9646;52.034;5.554;2024-01-30T13:24:08;7.57;;;2.28;;
19026;SDS011;9646;52.034;5.554;2024-01-30T13:26:35;6.15;;;2.70;;
19026;SDS011;9646;52.034;5.554;2024-01-30T13:29:03;5.57;;;2.67;;
19026;SDS011;9646;52.034;5.554;2024-01-30T13:31:31;5.43;;;2.38;;
19026;SDS011;9646;52.034;5.554;2024-01-30T13:33:59;7.90;;;3.30;;
19026;SDS011;9646;52.034;5.554;2024-01-30T13:36:26;7.22;;;2.58;;
19026;SDS011;9646;52.034;5.554;2024-01-30T13:38:54;10.10;;;3.63;;
19026;SDS011;9646;52.034;5.554;2024-01-30T13:41:21;9.85;;;2.80;;
19026;SDS011;9646;52.034;5.554;2024-01-30T13:43:48;6.55;;;3.00;;
19026;SDS011;9646;52.034;5.554;2024-01-30T13:46:15;5.43;;;2.72;;
19026;SDS011;9646;52.034;5.554;2024-01-30T13:48:44;7.40;;;3.42;;
19026;SDS011;9646;52.034;5.554;2024-01-30T13:51:11;6.78;;;3.33;;
19026;SDS011;9646;52.034;5.554;2024-01-30T13:53:38;9.18;;;2.90;;
19026;SDS011;9646;52.034;5.554;2024-01-30T13:56:05;6.03;;;2.45;;
19026;SDS011;9646;52.034;5.554;2024-01-30T13:58:33;5.15;;;2.25;;
19026;SDS011;9646;52.034;5.554;2024-01-30T14:01:01;4.57;;;2.28;;
19026;SDS011;9646;52.034;5.554;2024-01-30T14:03:28;5.47;;;2.13;;
19026;SDS011;9646;52.034;5.554;2024-01-30T14:05:57;5.68;;;1.70;;
19026;SDS011;9646;52.034;5.554;2024-01-30T14:08:24;4.35;;;1.50;;
19026;SDS011;9646;52.034;5.554;2024-01-30T14:10:53;5.00;;;1.88;;
19026;SDS011;9646;52.034;5.554;2024-01-30T14:13:22;3.08;;;1.60;;
19026;SDS011;9646;52.034;5.554;2024-01-30T14:15:50;5.18;;;1.58;;
19026;SDS011;9646;52.034;5.554;2024-01-30T14:18:23;4.85;;;1.20;;
19026;SDS011;9646;52.034;5.554;2024-01-30T14:20:50;5.43;;;1.20;;
19026;SDS011;9646;52.034;5.554;2024-01-30T14:23:19;3.15;;;1.50;;
19026;SDS011;9646;52.034;5.554;2024-01-30T14:25:46;2.83;;;1.50;;
19026;SDS011;9646;52.034;5.554;2024-01-30T14:28:15;3.97;;;2.13;;
19026;SDS011;9646;52.034;5.554;2024-01-30T14:30:42;6.25;;;2.05;;
19026;SDS011;9646;52.034;5.554;2024-01-30T14:33:09;5.13;;;2.15;;
19026;SDS011;9646;52.034;5.554;2024-01-30T14:35:36;4.25;;;2.28;;
19026;SDS011;9646;52.034;5.554;2024-01-30T14:38:04;5.50;;;2.42;;
19026;SDS011;9646;52.034;5.554;2024-01-30T14:40:34;5.85;;;2.95;;
19026;SDS011;9646;52.034;5.554;2024-01-30T14:43:01;4.28;;;2.20;;
19026;SDS011;9646;52.034;5.554;2024-01-30T14:45:28;5.70;;;2.65;;
19026;SDS011;9646;52.034;5.554;2024-01-30T14:47:56;7.80;;;2.67;;
19026;SDS011;9646;52.034;5.554;2024-01-30T14:50:24;5.28;;;2.60;;
19026;SDS011;9646;52.034;5.554;2024-01-30T14:52:52;5.88;;;3.28;;
19026;SDS011;9646;52.034;5.554;2024-01-30T14:55:19;7.45;;;2.90;;
19026;SDS011;9646;52.034;5.554;2024-01-30T14:57:48;4.45;;;2.25;;
19026;SDS011;9646;52.034;5.554;2024-01-30T15:00:15;4.80;;;2.33;;